Time;durP1;ratioP1;P1;durP2;ratioP2;P2;SDS_P1;SDS_P2;PMS_P1;PMS_P2;Temp;Humidity;BMP_temperature;BMP_pressure;BME280_temperature;BME280_humidity;BME280_pressure;Samples;Min_cycle;Max_cycle;Signal;HPM_P1;HPM_P2
2022/05/12 00:00:39;;;;;;;5.63;1.60;;;;;;;13.78;62.82;101628.97;2103372;28;20043;-72
2022/05/12 00:02:01;;;;;;;4.75;1.38;;;;;;;13.66;62.98;101634.06;2109040;28;20039;-71
2022/05/12 00:03:26;;;;;;;3.60;1.30;;;;;;;13.74;62.68;101627.13;2111342;28;20088;-71
2022/05/12 00:04:48;;;;;;;3.97;1.48;;;;;;;13.74;62.47;101627.13;2112000;28;20499;-72
2022/05/12 00:06:10;;;;;;;4.93;1.25;;;;;;;13.71;62.36;101616.47;2112024;28;20105;-72
2022/05/12 00:07:33;;;;;;;4.15;1.27;;;;;;;13.71;62.27;101621.78;2112186;28;20392;-71
2022/05/12 00:08:58;;;;;;;4.97;1.58;;;;;;;13.73;62.24;101622.66;2109623;28;20056;-71
2022/05/12 00:10:23;;;;;;;5.25;1.58;;;;;;;13.68;62.33;101625.25;2109267;28;20064;-72
2022/05/12 00:11:45;;;;;;;3.95;1.55;;;;;;;13.66;62.46;101631.41;2110711;28;20055;-71
2022/05/12 00:13:08;;;;;;;7.25;1.55;;;;;;;13.65;62.34;101627.88;2114639;28;20146;-71
2022/05/12 00:14:29;;;;;;;4.45;1.52;;;;;;;13.63;62.28;101634.03;2112523;28;20080;-71
2022/05/12 00:15:53;;;;;;;4.22;1.35;;;;;;;13.59;62.33;101626.88;2097722;28;20120;-72
2022/05/12 00:17:15;;;;;;;8.15;2.08;;;;;;;13.59;62.30;101619.78;2105687;28;20059;-71
2022/05/12 00:18:37;;;;;;;4.53;1.90;;;;;;;13.63;62.24;101620.75;2101781;28;20048;-71
2022/05/12 00:20:00;;;;;;;10.40;1.70;;;;;;;13.64;62.22;101620.78;2098501;28;20101;-71
2022/05/12 00:21:23;;;;;;;4.57;1.60;;;;;;;13.62;62.26;101621.63;2092682;28;20072;-72
2022/05/12 00:22:45;;;;;;;5.03;1.63;;;;;;;13.57;62.42;101626.84;2108695;28;20076;-71
2022/05/12 00:24:10;;;;;;;4.95;1.45;;;;;;;13.49;62.61;101618.75;2100915;28;20040;-72
2022/05/12 00:25:31;;;;;;;5.63;1.40;;;;;;;13.45;62.80;101627.53;2106858;28;20100;-72
2022/05/12 00:26:54;;;;;;;3.30;1.60;;;;;;;13.43;62.79;101626.59;2113519;27;20039;-72
2022/05/12 00:28:18;;;;;;;2.75;1.33;;;;;;;13.45;62.82;101622.22;2101382;28;20052;-71
2022/05/12 00:29:39;;;;;;;3.72;1.70;;;;;;;13.49;62.65;101631.13;2111719;28;20433;-72
2022/05/12 00:31:01;;;;;;;5.57;2.17;;;;;;;13.51;62.60;101619.69;2105551;28;20458;-71
2022/05/12 00:32:23;;;;;;;7.15;1.88;;;;;;;13.51;62.57;101617.03;2109574;28;20063;-72
2022/05/12 00:33:46;;;;;;;4.10;1.58;;;;;;;13.49;62.75;101621.41;2110897;28;20059;-72
2022/05/12 00:35:10;;;;;;;3.58;1.38;;;;;;;13.50;62.64;101624.97;2110784;28;20124;-71
2022/05/12 00:36:33;;;;;;;7.28;1.60;;;;;;;13.48;62.64;101618.72;2117210;27;20054;-72
2022/05/12 00:37:56;;;;;;;7.57;1.88;;;;;;;13.45;62.66;101622.22;2108779;28;20450;-72
2022/05/12 00:39:19;;;;;;;4.25;1.98;;;;;;;13.43;62.84;101617.75;2110168;28;20524;-71
2022/05/12 00:40:44;;;;;;;5.70;1.90;;;;;;;13.42;62.83;101614.22;2113380;28;20124;-71
2022/05/12 00:42:07;;;;;;;4.43;1.73;;;;;;;13.43;62.80;101617.75;2105883;28;20059;-72
2022/05/12 00:43:44;;;;;;;4.30;1.70;;;;;;;13.49;62.66;101617.84;2100966;28;20104;-72
2022/05/12 00:45:06;;;;;;;5.85;1.42;;;;;;;13.48;62.57;101616.97;2110440;27;20614;-71
2022/05/12 00:46:31;;;;;;;4.90;1.52;;;;;;;13.51;62.45;101605.53;2108416;28;20609;-72
2022/05/12 00:47:52;;;;;;;6.13;1.77;;;;;;;13.51;62.47;101602.88;2109812;28;20104;-72
2022/05/12 00:49:19;;;;;;;7.57;1.73;;;;;;;13.51;62.46;101601.13;2105960;28;20067;-72
2022/05/12 00:50:44;;;;;;;4.22;1.55;;;;;;;13.50;62.57;101603.72;2101850;28;20056;-71
2022/05/12 00:52:11;;;;;;;5.70;1.77;;;;;;;13.50;62.63;101606.38;2107846;28;20469;-72
2022/05/12 00:53:37;;;;;;;5.38;2.00;;;;;;;13.47;62.69;101604.56;2107307;28;20047;-72
2022/05/12 00:55:06;;;;;;;6.57;2.10;;;;;;;13.44;62.78;101599.22;2108880;28;20097;-72
2022/05/12 00:56:27;;;;;;;3.42;1.55;;;;;;;13.41;62.78;101596.50;2106875;28;20134;-72
2022/05/12 00:57:52;;;;;;;5.05;1.60;;;;;;;13.37;63.04;101607.94;2103058;28;20048;-73
2022/05/12 00:59:20;;;;;;;8.73;1.73;;;;;;;13.35;63.06;101593.75;2108757;28;20107;-72
2022/05/12 01:00:43;;;;;;;7.03;2.63;;;;;;;13.32;63.21;101601.66;2110867;28;20039;-72
2022/05/12 01:02:10;;;;;;;6.15;2.00;;;;;;;13.34;63.10;101596.34;2110481;28;20051;-72
2022/05/12 01:03:32;;;;;;;3.50;1.45;;;;;;;13.30;63.15;101603.38;2113189;28;20429;-72
2022/05/12 01:04:58;;;;;;;6.22;2.03;;;;;;;13.30;63.20;101600.72;2110809;28;20074;-72
2022/05/12 01:06:21;;;;;;;2.75;1.65;;;;;;;13.26;63.24;101598.88;2111089;28;20040;-72
2022/05/12 01:07:42;;;;;;;4.80;1.55;;;;;;;13.25;63.29;101609.47;2110260;28;20430;-72
2022/05/12 01:09:05;;;;;;;5.45;1.73;;;;;;;13.16;63.44;101607.53;2108847;28;20040;-72
2022/05/12 01:10:31;;;;;;;8.20;2.03;;;;;;;13.07;63.69;101597.59;2101720;28;20093;-72
2022/05/12 01:11:54;;;;;;;6.35;2.05;;;;;;;13.04;64.01;101599.31;2103861;28;20040;-71
2022/05/12 01:13:18;;;;;;;8.73;1.95;;;;;;;13.05;64.30;101594.06;2111072;28;20114;-72
2022/05/12 01:14:41;;;;;;;4.18;1.85;;;;;;;13.07;64.31;101602.00;2102460;28;20473;-72
2022/05/12 01:16:03;;;;;;;3.67;1.70;;;;;;;13.11;64.22;101594.19;2103016;28;20411;-72
2022/05/12 01:17:25;;;;;;;5.38;1.67;;;;;;;13.13;64.28;101594.22;2108682;28;20469;-72
2022/05/12 01:18:47;;;;;;;6.40;1.95;;;;;;;13.20;64.31;101595.22;2109573;28;20142;-72
2022/05/12 01:20:11;;;;;;;9.60;2.00;;;;;;;13.25;64.21;101597.13;2117144;27;20039;-71
2022/05/12 01:21:33;;;;;;;4.68;1.77;;;;;;;13.28;64.11;101599.81;2113273;28;20039;-72
2022/05/12 01:23:00;;;;;;;3.92;1.70;;;;;;;13.32;63.91;101592.81;2110604;28;20058;-71
2022/05/12 01:24:27;;;;;;;7.28;2.10;;;;;;;13.34;63.66;101601.66;2095473;28;20048;-72
2022/05/12 01:25:49;;;;;;;7.25;1.63;;;;;;;13.30;63.48;101599.84;2101439;28;20369;-71
2022/05/12 01:27:21;;;;;;;;;;;;;;;13.23;63.46;101604.13;2107941;28;20046;-71
2022/05/12 01:28:44;;;;;;;5.70;1.70;;;;;;;13.13;63.77;101610.13;2103408;28;19924;-72
2022/05/12 01:30:10;;;;;;;7.40;1.92;;;;;;;13.15;63.75;101605.75;2097356;28;20391;-71
2022/05/12 01:31:32;;;;;;;8.35;2.10;;;;;;;13.15;63.71;101613.69;2107973;28;20072;-72
2022/05/12 01:32:55;;;;;;;7.68;2.20;;;;;;;13.17;63.77;101604.03;2103091;28;20048;-72
2022/05/12 01:34:17;;;;;;;4.03;1.80;;;;;;;13.18;63.92;101605.81;2111134;28;20873;-72
2022/05/12 01:35:39;;;;;;;4.82;1.88;;;;;;;13.20;64.05;101603.16;2111329;28;20051;-72
2022/05/12 01:37:01;;;;;;;4.28;1.75;;;;;;;13.18;64.24;101611.13;2104641;28;20044;-71
2022/05/12 01:38:24;;;;;;;6.50;2.13;;;;;;;13.19;64.38;101615.56;2111633;28;20047;-71
2022/05/12 01:39:47;;;;;;;5.47;2.13;;;;;;;13.21;64.41;101616.47;2108233;28;20048;-72
2022/05/12 01:41:10;;;;;;;5.20;1.90;;;;;;;13.19;64.45;101620.88;2109137;28;20063;-71
2022/05/12 01:42:31;;;;;;;5.47;1.80;;;;;;;13.15;64.54;101617.25;2102957;28;20365;-71
2022/05/12 01:43:54;;;;;;;19.58;3.13;;;;;;;13.13;64.70;101616.31;2102926;28;20055;-71
2022/05/12 01:45:16;;;;;;;4.95;1.92;;;;;;;13.11;64.79;101610.06;2102803;28;20043;-72
2022/05/12 01:46:39;;;;;;;7.43;2.55;;;;;;;13.09;64.96;101613.56;2105117;28;20040;-72
2022/05/12 01:48:00;;;;;;;6.55;2.00;;;;;;;13.08;64.92;101612.66;2094047;28;20049;-72
2022/05/12 01:49:23;;;;;;;4.05;1.70;;;;;;;13.09;64.96;101606.50;2097517;28;20112;-72
2022/05/12 01:50:47;;;;;;;7.50;2.67;;;;;;;13.13;64.89;101608.38;2105462;28;20036;-72
2022/05/12 01:52:11;;;;;;;4.70;1.67;;;;;;;13.14;64.86;101614.56;2101436;28;20083;-72
2022/05/12 01:53:34;;;;;;;4.53;1.98;;;;;;;13.15;64.77;101605.75;2105541;28;20555;-71
2022/05/12 01:54:57;;;;;;;5.05;1.73;;;;;;;13.16;64.65;101600.47;2111634;28;20048;-72
2022/05/12 01:56:19;;;;;;;4.28;1.80;;;;;;;13.15;64.73;101600.44;2110195;28;20036;-72
2022/05/12 01:57:43;;;;;;;5.28;2.00;;;;;;;13.14;64.63;101601.31;2106461;28;20418;-72
2022/05/12 01:59:05;;;;;;;5.60;1.83;;;;;;;13.12;64.63;101603.94;2109399;28;20032;-72
2022/05/12 02:00:30;;;;;;;6.97;2.05;;;;;;;13.11;64.78;101596.81;2109602;28;20043;-72
2022/05/12 02:01:52;;;;;;;9.90;2.20;;;;;;;13.10;64.81;101596.78;2111638;28;20047;-71
2022/05/12 02:03:14;;;;;;;5.93;2.13;;;;;;;13.08;64.86;101588.78;2108186;28;20460;-72
2022/05/12 02:04:36;;;;;;;4.57;1.63;;;;;;;13.06;64.81;101592.31;2102556;28;20040;-71
2022/05/12 02:06:00;;;;;;;4.20;1.83;;;;;;;13.05;64.91;101594.06;2108452;28;20459;-71
2022/05/12 02:07:22;;;;;;;11.95;2.38;;;;;;;13.05;65.02;101588.75;2110702;28;20047;-72
2022/05/12 02:08:45;;;;;;;5.93;2.40;;;;;;;13.06;65.07;101595.81;2098156;28;20048;-72
2022/05/12 02:10:12;;;;;;;6.75;2.20;;;;;;;13.07;65.11;101596.72;2096909;28;20035;-72
2022/05/12 02:11:35;;;;;;;9.23;2.10;;;;;;;13.01;65.24;101599.25;2103637;28;20043;-72
2022/05/12 02:12:57;;;;;;;4.10;1.65;;;;;;;12.95;65.43;101593.84;2097014;28;20045;-71
2022/05/12 02:14:19;;;;;;;4.07;1.50;;;;;;;12.88;65.58;101590.19;2100107;28;20063;-71
2022/05/12 02:15:43;;;;;;;4.35;2.03;;;;;;;12.85;65.73;101591.88;2107352;28;20060;-72
2022/05/12 02:17:05;;;;;;;4.03;1.83;;;;;;;12.78;65.90;101589.13;2094448;28;20094;-71
2022/05/12 02:18:29;;;;;;;5.32;2.20;;;;;;;12.77;66.07;101576.72;2097233;28;20052;-72
2022/05/12 02:19:51;;;;;;;7.28;1.83;;;;;;;12.74;66.12;101571.34;2109373;28;20141;-72
2022/05/12 02:21:13;;;;;;;5.43;2.25;;;;;;;12.70;66.36;101561.56;2110139;28;20077;-72
2022/05/12 02:22:34;;;;;;;4.22;1.90;;;;;;;12.70;66.47;101561.56;2105109;28;20040;-71
2022/05/12 02:23:57;;;;;;;5.05;2.08;;;;;;;12.70;66.49;101558.94;2113198;28;20051;-72
2022/05/12 02:25:21;;;;;;;6.18;2.63;;;;;;;12.74;66.33;101557.22;2110957;28;20047;-72
2022/05/12 02:26:43;;;;;;;6.50;2.10;;;;;;;12.74;66.14;101565.16;2103138;28;20048;-72
2022/05/12 02:28:06;;;;;;;9.10;2.40;;;;;;;12.75;66.06;101557.25;2107565;28;20046;-72
2022/05/12 02:29:27;;;;;;;4.30;1.75;;;;;;;12.77;65.77;101560.84;2107636;28;20028;-72
2022/05/12 02:30:50;;;;;;;5.88;2.00;;;;;;;12.73;65.71;101561.63;2110076;28;20060;-72
2022/05/12 02:32:11;;;;;;;4.97;1.80;;;;;;;12.71;65.66;101567.75;2110014;28;20429;-72
2022/05/12 02:33:34;;;;;;;4.90;1.60;;;;;;;12.69;65.82;101574.78;2102949;28;20146;-72
2022/05/12 02:34:56;;;;;;;6.22;2.42;;;;;;;12.69;66.09;101583.63;2107720;28;20072;-71
2022/05/12 02:36:18;;;;;;;;;;;;;;;12.68;66.20;101589.78;2110635;28;20477;-72
2022/05/12 02:37:41;;;;;;;6.93;1.70;;;;;;;12.66;66.40;101594.19;2109988;28;20346;-71
2022/05/12 02:39:04;;;;;;;5.82;2.42;;;;;;;12.67;66.38;101592.38;2108593;28;20601;-72
2022/05/12 02:40:28;;;;;;;6.43;2.10;;;;;;;12.69;66.56;101593.31;2109105;28;20391;-72
2022/05/12 02:41:51;;;;;;;7.53;2.58;;;;;;;12.65;66.55;101584.44;2109811;28;20043;-71
2022/05/12 02:43:24;;;;;;;9.15;2.35;;;;;;;12.63;66.78;101591.44;2111435;28;20069;-71
2022/05/12 02:44:47;;;;;;;11.10;2.42;;;;;;;12.62;67.07;101583.47;2112843;28;20138;-71
2022/05/12 02:46:11;;;;;;;6.00;1.75;;;;;;;12.61;67.13;101585.22;2101398;28;20040;-72
2022/05/12 02:47:33;;;;;;;5.13;2.45;;;;;;;12.54;67.22;101578.00;2102230;28;20100;-72
2022/05/12 02:48:55;;;;;;;6.82;2.50;;;;;;;12.51;67.46;101574.41;2104081;28;20112;-71
2022/05/12 02:50:19;;;;;;;4.63;2.22;;;;;;;12.52;67.75;101579.75;2108431;28;20058;-71
2022/05/12 02:51:43;;;;;;;6.22;3.05;;;;;;;12.54;67.69;101582.41;2111095;28;20108;-72
2022/05/12 02:53:06;;;;;;;5.93;2.85;;;;;;;12.56;67.52;101586.00;2112522;28;20160;-72
2022/05/12 02:54:27;;;;;;;9.98;2.67;;;;;;;12.58;67.37;101579.88;2102520;28;20401;-71
2022/05/12 02:55:52;;;;;;;6.93;2.45;;;;;;;12.63;67.16;101583.50;2101685;28;20044;-72
2022/05/12 02:57:14;;;;;;;5.95;2.28;;;;;;;12.62;67.17;101581.72;2108014;28;20040;-72
2022/05/12 02:58:37;;;;;;;5.30;2.33;;;;;;;12.63;67.17;101579.97;2105110;28;20047;-72
2022/05/12 02:59:58;;;;;;;8.38;2.17;;;;;;;12.65;67.19;101580.88;2108887;28;20088;-72
2022/05/12 03:01:21;;;;;;;12.48;2.28;;;;;;;12.67;67.14;101574.75;2102776;28;20094;-72
2022/05/12 03:02:42;;;;;;;5.32;1.90;;;;;;;12.67;67.08;101585.34;2098833;28;20048;-72
2022/05/12 03:04:06;;;;;;;6.05;2.20;;;;;;;12.66;66.89;101577.38;2108434;28;20051;-72
2022/05/12 03:05:29;;;;;;;6.32;2.40;;;;;;;12.65;66.81;101586.19;2105378;28;20109;-72
2022/05/12 03:06:51;;;;;;;8.30;2.38;;;;;;;12.60;67.11;101583.41;2103601;28;20672;-72
2022/05/12 03:08:14;;;;;;;7.07;2.08;;;;;;;12.60;67.32;101583.41;2112739;28;20089;-72
2022/05/12 03:09:36;;;;;;;9.07;3.00;;;;;;;12.60;67.53;101582.56;2108091;28;20486;-72
2022/05/12 03:11:00;;;;;;;5.15;2.22;;;;;;;12.63;67.70;101586.16;2100138;28;20048;-72
2022/05/12 03:12:22;;;;;;;14.65;3.75;;;;;;;12.62;67.58;101578.16;2108812;28;20504;-72
2022/05/12 03:13:44;;;;;;;4.43;2.20;;;;;;;12.59;67.65;101586.97;2107745;28;20123;-72
2022/05/12 03:15:08;;;;;;;6.55;2.03;;;;;;;12.58;67.75;101589.56;2104448;28;20485;-71
2022/05/12 03:16:30;;;;;;;5.88;2.28;;;;;;;12.59;67.81;101589.63;2102275;28;20150;-71
2022/05/12 03:17:52;;;;;;;9.50;2.55;;;;;;;12.61;67.73;101581.66;2104120;28;20590;-71
2022/05/12 03:19:14;;;;;;;8.82;2.67;;;;;;;12.62;67.58;101580.81;2108634;28;20035;-71
2022/05/12 03:20:37;;;;;;;6.88;2.63;;;;;;;12.61;67.58;101573.72;2117843;28;20039;-71
2022/05/12 03:21:58;;;;;;;5.00;2.20;;;;;;;12.59;67.44;101573.72;2109314;28;20086;-71
2022/05/12 03:23:22;;;;;;;7.45;2.38;;;;;;;12.58;67.56;101581.63;2109274;28;20059;-72
2022/05/12 03:24:44;;;;;;;6.78;2.25;;;;;;;12.59;67.59;101576.38;2099302;28;20514;-71
2022/05/12 03:26:09;;;;;;;6.68;3.13;;;;;;;12.61;67.65;101577.28;2097879;28;20048;-71
2022/05/12 03:27:32;;;;;;;4.72;2.67;;;;;;;12.62;67.68;101580.81;2106885;28;20044;-71
2022/05/12 03:28:54;;;;;;;6.28;2.40;;;;;;;12.64;67.74;101581.75;2110512;28;20048;-72
2022/05/12 03:30:20;;;;;;;8.60;2.03;;;;;;;12.68;67.82;101591.53;2103978;28;20109;-71
2022/05/12 03:31:43;;;;;;;9.45;2.47;;;;;;;12.71;67.87;101596.91;2114457;28;20048;-71
2022/05/12 03:33:04;;;;;;;7.63;2.65;;;;;;;12.75;68.11;101602.28;2110445;28;20495;-71
2022/05/12 03:34:27;;;;;;;5.35;2.13;;;;;;;12.82;68.14;101599.75;2103364;28;20187;-72
2022/05/12 03:35:49;;;;;;;6.28;2.10;;;;;;;12.89;68.11;101607.88;2106392;28;20461;-71
2022/05/12 03:37:13;;;;;;;8.85;2.60;;;;;;;12.99;68.06;101601.91;2114140;28;20066;-71
2022/05/12 03:38:35;;;;;;;7.72;2.53;;;;;;;13.07;68.13;101610.88;2104315;28;20441;-71
2022/05/12 03:39:57;;;;;;;7.63;2.25;;;;;;;13.14;68.16;101609.25;2111990;28;20047;-71
2022/05/12 03:41:21;;;;;;;5.68;2.25;;;;;;;13.23;68.19;101604.13;2111339;28;20047;-71
2022/05/12 03:42:43;;;;;;;5.03;2.13;;;;;;;13.29;68.19;101606.91;2112063;28;20154;-71
2022/05/12 03:45:45;;;;;;;8.52;2.20;;;;;;;13.51;67.86;101605.53;2103856;28;20048;-71
2022/05/12 03:47:07;;;;;;;6.35;2.20;;;;;;;13.59;67.78;101614.47;2092910;28;20085;-71
2022/05/12 03:48:30;;;;;;;4.90;2.15;;;;;;;13.71;67.64;101611.16;2105074;28;20047;-72
2022/05/12 03:49:57;;;;;;;5.45;1.73;;;;;;;13.81;67.39;101610.44;2103724;28;20040;-71
2022/05/12 03:51:18;;;;;;;5.93;2.22;;;;;;;13.86;67.05;101612.28;2112570;28;20139;-71
2022/05/12 03:52:41;;;;;;;5.95;1.92;;;;;;;13.95;66.84;101616.84;2110770;28;20039;-72
2022/05/12 03:54:04;;;;;;;4.50;1.95;;;;;;;14.05;66.84;101620.53;2102063;28;20100;-71
2022/05/12 03:55:29;;;;;;;4.95;1.75;;;;;;;14.15;66.86;101630.44;2101154;28;20074;-71
2022/05/12 03:56:52;;;;;;;6.68;1.92;;;;;;;14.25;66.74;101638.53;2100684;28;20063;-71
2022/05/12 03:58:14;;;;;;;5.35;1.80;;;;;;;14.33;66.55;101634.25;2110585;27;20043;-71
2022/05/12 03:59:39;;;;;;;6.85;1.90;;;;;;;14.45;66.62;101644.19;2108808;28;20039;-72
2022/05/12 04:01:01;;;;;;;4.50;1.83;;;;;;;14.56;66.50;101642.59;2103763;28;20110;-72
2022/05/12 04:02:24;;;;;;;4.75;1.80;;;;;;;14.68;66.36;101641.84;2103320;28;20484;-71
2022/05/12 04:03:47;;;;;;;4.90;1.77;;;;;;;14.81;66.17;101648.22;2103225;28;20051;-71
2022/05/12 04:05:10;;;;;;;7.18;1.85;;;;;;;14.95;66.00;101652.81;2112015;28;20079;-71
2022/05/12 04:06:32;;;;;;;7.63;2.22;;;;;;;15.07;65.87;101652.97;2098211;28;20044;-71
2022/05/12 04:07:55;;;;;;;6.22;2.20;;;;;;;15.20;65.91;101648.66;2092790;28;20481;-71
2022/05/12 04:09:18;;;;;;;6.75;1.70;;;;;;;15.33;65.67;101652.34;2100446;28;20040;-71
2022/05/12 04:10:40;;;;;;;8.77;1.92;;;;;;;15.47;65.63;101648.06;2107071;28;20051;-71
2022/05/12 04:12:07;;;;;;;9.55;2.38;;;;;;;15.63;65.42;101639.38;2109588;28;20126;-72
2022/05/12 04:13:30;;;;;;;6.25;1.92;;;;;;;15.77;65.26;101645.72;2113524;27;20074;-71
2022/05/12 04:14:52;;;;;;;4.50;1.60;;;;;;;15.78;65.48;101638.63;2121013;27;20105;-72
2022/05/12 04:16:16;;;;;;;7.40;2.00;;;;;;;15.89;65.60;101645.81;2102052;28;20047;-72
2022/05/12 04:17:37;;;;;;;5.50;1.58;;;;;;;16.15;65.07;101645.09;2116742;27;20046;-71
2022/05/12 04:19:00;;;;;;;9.73;1.88;;;;;;;16.24;64.59;101651.41;2112760;28;20469;-72
2022/05/12 04:20:23;;;;;;;7.00;1.77;;;;;;;16.33;64.15;101648.81;2101758;28;20051;-71
2022/05/12 04:21:45;;;;;;;4.70;1.70;;;;;;;16.45;63.77;101649.75;2101415;28;20373;-71
2022/05/12 04:23:08;;;;;;;6.68;1.90;;;;;;;16.56;63.48;101650.69;2108734;28;20047;-71
2022/05/12 04:24:30;;;;;;;7.93;2.00;;;;;;;16.70;63.25;101646.38;2104317;28;20048;-71
2022/05/12 04:25:53;;;;;;;6.07;1.38;;;;;;;16.86;62.96;101647.34;2095483;28;20401;-72
2022/05/12 04:27:17;;;;;;;5.78;1.90;;;;;;;17.01;62.62;101647.38;2109714;28;20560;-71
2022/05/12 04:28:41;;;;;;;7.10;1.67;;;;;;;17.18;62.15;101655.44;2103883;28;20738;-72
2022/05/12 04:30:04;;;;;;;5.35;1.38;;;;;;;17.36;61.56;101658.16;2109464;28;20054;-72
2022/05/12 04:31:27;;;;;;;3.97;1.70;;;;;;;17.53;61.40;101659.06;2101023;28;20056;-72
2022/05/12 04:32:48;;;;;;;4.13;1.60;;;;;;;17.71;61.22;101655.59;2109440;28;20056;-73
2022/05/12 04:35:52;;;;;;;4.03;1.45;;;;;;;18.08;60.35;101648.44;2090810;28;20041;-71
2022/05/12 04:37:15;;;;;;;3.22;1.50;;;;;;;18.24;59.98;101650.22;2098466;28;20071;-72
2022/05/12 04:38:37;;;;;;;7.45;3.10;;;;;;;18.44;59.49;101658.19;2108896;28;20140;-72
2022/05/12 04:40:05;;;;;;;3.97;1.70;;;;;;;18.64;58.91;101656.41;2101303;28;20040;-72
2022/05/12 04:41:28;;;;;;;3.75;1.77;;;;;;;18.78;58.36;101649.19;2105342;28;20043;-71
2022/05/12 04:42:54;;;;;;;4.15;2.03;;;;;;;18.99;57.94;101665.16;2109338;28;20441;-72
2022/05/12 04:44:16;;;;;;;6.63;1.67;;;;;;;19.20;57.41;101668.63;2102930;28;20044;-72
2022/05/12 04:45:40;;;;;;;4.15;1.70;;;;;;;19.42;56.99;101670.31;2105310;28;20052;-72
2022/05/12 04:47:03;;;;;;;3.60;1.50;;;;;;;19.64;56.25;101661.25;2109722;28;20091;-72
2022/05/12 04:48:29;;;;;;;5.82;2.40;;;;;;;19.86;55.42;101661.97;2112146;28;20483;-72
2022/05/12 04:49:52;;;;;;;6.90;2.22;;;;;;;20.08;54.44;101657.31;2111128;28;20058;-72
2022/05/12 04:51:14;;;;;;;6.15;2.22;;;;;;;20.33;53.77;101666.06;2109701;28;20678;-72
2022/05/12 04:52:36;;;;;;;7.43;2.47;;;;;;;20.55;53.18;101665.78;2098552;28;20139;-72
2022/05/12 04:53:59;;;;;;;5.78;1.85;;;;;;;20.80;52.31;101654.81;2103487;28;20051;-72
2022/05/12 04:55:23;;;;;;;7.75;1.95;;;;;;;21.04;51.46;101655.38;2097697;28;20044;-72
2022/05/12 04:56:45;;;;;;;8.68;1.98;;;;;;;21.20;50.77;101663.28;2101841;28;20165;-72
2022/05/12 04:58:10;;;;;;;6.28;1.88;;;;;;;21.34;50.18;101664.81;2107011;28;20382;-72
2022/05/12 04:59:34;;;;;;;6.18;2.45;;;;;;;21.52;49.83;101661.00;2109210;28;20055;-71
2022/05/12 05:00:57;;;;;;;7.95;2.08;;;;;;;21.73;49.39;101667.81;2101390;28;20142;-72
2022/05/12 05:02:18;;;;;;;5.53;1.67;;;;;;;21.97;49.18;101651.34;2110102;28;20044;-71
2022/05/12 05:03:42;;;;;;;6.50;2.50;;;;;;;22.19;48.78;101652.72;2098357;28;20048;-72
2022/05/12 05:05:04;;;;;;;4.40;1.73;;;;;;;22.43;48.24;101650.50;2097759;28;20044;-72
2022/05/12 05:06:27;;;;;;;5.50;1.95;;;;;;;22.68;47.63;101654.50;2106082;28;20055;-72
2022/05/12 05:07:50;;;;;;;8.07;1.88;;;;;;;22.97;47.03;101653.94;2099610;28;20033;-71
2022/05/12 05:09:13;;;;;;;6.95;2.28;;;;;;;23.25;46.44;101655.09;2108273;27;20044;-72
2022/05/12 05:10:34;;;;;;;9.38;2.00;;;;;;;23.50;45.80;101657.28;2107187;28;20113;-72
2022/05/12 05:11:57;;;;;;;5.53;1.98;;;;;;;23.75;45.34;101650.38;2105477;28;20142;-72
2022/05/12 05:13:22;;;;;;;6.07;2.38;;;;;;;24.01;44.71;101656.00;2109893;27;20044;-72
2022/05/12 05:14:43;;;;;;;22.00;13.52;;;;;;;24.20;43.87;101664.53;2122783;27;20364;-72
2022/05/12 05:16:06;;;;;;;17.15;10.57;;;;;;;24.30;43.46;101646.25;2092046;28;20053;-72
2022/05/12 05:17:28;;;;;;;14.82;6.70;;;;;;;24.47;43.19;101646.72;2106744;28;20510;-73
2022/05/12 05:18:50;;;;;;;5.38;2.28;;;;;;;24.68;42.53;101637.97;2122954;27;20410;-73
2022/05/12 05:20:16;;;;;;;7.97;2.00;;;;;;;24.92;41.70;101631.91;2103761;28;20407;-72
2022/05/12 05:21:39;;;;;;;8.05;1.80;;;;;;;25.10;41.31;101635.88;2101732;28;20486;-72
2022/05/12 05:23:00;;;;;;;6.78;2.35;;;;;;;25.30;40.51;101632.56;2094937;28;20056;-72
2022/05/12 05:24:23;;;;;;;4.88;1.80;;;;;;;25.49;40.30;101631.03;2107241;28;20047;-72
2022/05/12 05:25:46;;;;;;;6.05;2.17;;;;;;;25.69;39.91;101633.13;2109553;28;20469;-72
2022/05/12 05:27:09;;;;;;;8.07;2.00;;;;;;;25.84;39.46;101634.44;2093974;28;20093;-73
2022/05/12 05:28:33;;;;;;;5.93;2.10;;;;;;;25.93;38.97;101632.28;2101098;28;20051;-72
2022/05/12 05:29:54;;;;;;;4.80;1.55;;;;;;;26.00;38.88;101636.56;2107839;28;20047;-72
2022/05/12 05:31:17;;;;;;;7.22;1.70;;;;;;;26.15;38.36;101643.25;2109728;28;20130;-72
2022/05/12 05:32:39;;;;;;;5.10;1.70;;;;;;;26.27;38.17;101642.88;2109897;28;20047;-72
2022/05/12 05:34:02;;;;;;;5.05;1.77;;;;;;;26.39;37.74;101645.13;2100259;28;20419;-72
2022/05/12 05:35:25;;;;;;;5.35;2.00;;;;;;;26.48;37.32;101642.09;2110502;27;20047;-72
2022/05/12 05:36:47;;;;;;;5.75;1.80;;;;;;;26.47;36.58;101631.31;2112698;28;20457;-72
2022/05/12 05:38:10;;;;;;;5.18;2.10;;;;;;;26.38;35.78;101646.09;2110462;28;20085;-73
2022/05/12 05:39:33;;;;;;;5.97;1.65;;;;;;;26.25;35.94;101643.88;2110416;28;20053;-73
2022/05/12 05:40:56;;;;;;;10.82;2.20;;;;;;;26.23;35.49;101649.31;2110629;28;20039;-73
2022/05/12 05:42:20;;;;;;;7.50;1.60;;;;;;;26.30;35.30;101641.88;2099915;28;20050;-72
2022/05/12 05:43:44;;;;;;;10.88;1.95;;;;;;;26.29;34.96;101646.41;2108183;28;20050;-73
2022/05/12 05:45:11;;;;;;;4.88;1.73;;;;;;;26.35;35.00;101642.59;2115113;27;20054;-74
2022/05/12 05:46:33;;;;;;;4.32;1.70;;;;;;;26.54;34.35;101647.28;2113828;28;20058;-74
2022/05/12 05:47:58;;;;;;;6.47;1.80;;;;;;;26.65;34.00;101646.03;2110172;28;20117;-74
2022/05/12 05:49:23;;;;;;;5.18;1.77;;;;;;;26.72;33.91;101651.16;2104133;28;20043;-75
2022/05/12 05:54:06;;;;;;;5.50;1.98;;;;;;;26.66;34.55;101666.75;2110216;28;20047;-74
2022/05/12 05:55:27;;;;;;;5.78;1.63;;;;;;;26.76;34.31;101671.78;2104105;28;20036;-74
2022/05/12 05:56:50;;;;;;;3.90;2.35;;;;;;;26.89;33.74;101664.13;2106689;28;20448;-74
2022/05/12 05:58:13;;;;;;;7.07;2.00;;;;;;;26.94;33.75;101670.25;2097578;28;20145;-74
2022/05/12 05:59:37;;;;;;;4.22;1.95;;;;;;;26.98;33.81;101673.75;2100288;28;20480;-74
2022/05/12 06:01:00;;;;;;;6.47;1.65;;;;;;;27.00;33.06;101675.44;2106253;28;20035;-74
2022/05/12 06:02:23;;;;;;;5.97;1.58;;;;;;;26.96;33.18;101677.38;2097994;28;20585;-74
2022/05/12 06:03:46;;;;;;;5.03;1.70;;;;;;;26.91;33.42;101678.50;2103762;28;20109;-74
2022/05/12 06:05:09;;;;;;;6.38;1.83;;;;;;;27.06;33.38;101677.91;2105864;28;20052;-74
2022/05/12 06:06:33;;;;;;;6.45;1.75;;;;;;;27.16;33.40;101667.59;2102916;28;20056;-74
2022/05/12 06:07:57;;;;;;;5.07;1.60;;;;;;;27.36;33.21;101662.28;2105713;28;20158;-74
2022/05/12 06:09:19;;;;;;;7.97;1.50;;;;;;;27.45;33.38;101663.72;2105542;28;20048;-74
2022/05/12 06:10:43;;;;;;;6.72;1.88;;;;;;;27.55;33.20;101660.63;2107639;28;20051;-74
2022/05/12 06:12:07;;;;;;;6.90;1.70;;;;;;;27.57;32.82;101663.28;2094977;28;20412;-73
2022/05/12 06:13:29;;;;;;;9.10;2.15;;;;;;;27.54;32.87;101658.88;2100805;28;20047;-74
2022/05/12 06:14:53;;;;;;;4.60;1.40;;;;;;;27.53;32.73;101657.09;2108646;28;20619;-74
2022/05/12 06:16:16;;;;;;;4.88;1.80;;;;;;;27.49;32.41;101657.25;2106782;28;20589;-74
2022/05/12 06:17:39;;;;;;;4.18;1.55;;;;;;;27.44;32.08;101656.56;2116322;28;20047;-74
2022/05/12 06:19:02;;;;;;;4.10;1.52;;;;;;;27.47;32.24;101654.59;2110644;28;20531;-74
2022/05/12 06:20:25;;;;;;;5.18;1.67;;;;;;;27.45;32.13;101663.72;2112744;28;20100;-74
2022/05/12 06:21:47;;;;;;;8.98;1.85;;;;;;;27.29;32.19;101658.03;2096939;28;20044;-73
2022/05/12 06:23:10;;;;;;;5.25;1.88;;;;;;;27.19;32.18;101670.19;2108572;28;20047;-73
2022/05/12 06:24:33;;;;;;;5.00;1.73;;;;;;;27.07;32.54;101667.94;2105576;28;20381;-73
2022/05/12 06:25:55;;;;;;;5.85;1.70;;;;;;;26.96;32.74;101673.78;2103468;28;20048;-74
2022/05/12 06:27:20;;;;;;;4.32;1.80;;;;;;;26.92;32.74;101680.25;2104271;28;20079;-73
2022/05/12 06:28:45;;;;;;;5.25;1.52;;;;;;;26.89;32.85;101681.25;2095158;28;20053;-74
2022/05/12 06:30:13;;;;;;;5.65;1.60;;;;;;;26.87;32.59;101684.94;2104242;28;20055;-73
2022/05/12 06:31:36;;;;;;;6.45;1.75;;;;;;;26.88;32.83;101695.72;2111812;28;20044;-73
2022/05/12 06:32:58;;;;;;;6.85;2.00;;;;;;;26.98;33.20;101707.13;2110843;28;20562;-73